CYOD

CFB Cold Lake Airport

Cold Lake, Alberta, Canada
METAR CYOD 211324Z 29003KT 15SM FEW004 BKN009 OVC012 15/14 A2989 RMK SF1SC6SC2 SF TR SLP126
Observed Flight Rules
Jul-21 @ 13:24 UTC (28 minutes ago) Instrument Flight Rules
Wind Visibility Clouds
290° at 3 knots 15 miles
  • Few at 400' AGL
  • Broken at 900' AGL
  • Overcast at 1,200' AGL
Temperatures Readings
Current 15°C / 59°F
Dewpoint 14°C / 57°F
Humidity 94%
Altimeter 29.89" Hg
Pressure 1012.6 hPa
Elevation 544
METAR CYOD 211324Z 29003KT 15SM FEW004 BKN009 OVC012 15/14 A2989 RMK SF1SC6SC2 SF TR SLP126
Observed Flight Rules
Jul-21 @ 13:24 UTC
(28 minutes ago)
IFR
Wind Visibility
290° at 3 knots 15 miles
Clouds
  • Few at 400' AGL
  • Broken at 900' AGL
  • Overcast at 1,200' AGL
Temperature Dewpoint
15°C / 59°F 14°C / 57°F
Humidity Altimeter Pressure
94% 29.89" Hg 1012.6 hPa